Piedmont, Missouri
Current Conditions -  °F | °C
As of 9:53 AM on Saturday 20 Dec 2014 (Local Time) from KPOF Reporting Station
Overcast Overcast  
Wind Chill: 36°   Ceiling: 2800
Heat Index: 39°   Visibility: 8mi
Dew Point: 31°   Wind: 5mph
Humidity: 73%   Direction: 100°E
Pressure: 30.3"   Gusts: NA
Location:  37.15°N, 90.7°W
Report Text: KPOF 201553Z AUTO 10004KT 8SM BKN028 OVC038 04/M01 A3030 RMK AO2 SLP267 T00391006
Loading
Personal Weather Stations






























Interactive Weather Map New forecast layout! Learn more

10-Day Weather Forecast

Advertisements
Track Severe Weather on mobile